Airfield :







YOU CAN JOIN US ON...

 
LOGIN :

Register | Disclaimer

   EN    FR    IT 

 









Legend :    VFR   Marginal VFR   IFR   Intensive IFR   Very Intensive IFR
Visi :
Ceiling :
>= 8 km
>= 3000ft
5 to 8 km
1000 to 3000 ft
1500m to 5 km
500 to 1000 ft
800 to 1500m
200 to 500 ft
< 800m
< 200 ft
Symbols :   Thunderstorms  Fog  Heavy snow  Heavy precipitations  Wind > 20 kt







- Airport Elevation : 72 ft
- IATA code : YDF


CYDF - Deer Lake

CURRENT METAR :
  • 150800Z 00000KT 15SM SCT026 OVC041 10/07 A3004 RMK SC3SC5 SLP173

EXPIRED METARs :
  • 150700Z 20003KT 15SM OVC045 10/07 A3006 RMK SC8 SLP180
  • 150600Z 00000KT 15SM OVC045 09/08 A3008 RMK SC8 SLP190

TAF TAF CYDF
Valid from the 15 at 08:00 until the 15 at 20:00 UTC


150738Z 1508/1520 20007KT P6SM SCT010 OVC025
TEMPO 1508/1520 4SM -DZ BR SCT007 OVC015
BECMG 1513/1515 22012G22KT RMK NXT FCST BY 151400Z
No reported NOTAMs for that airfield.



MET'MAP, your aeronautical weather chart ! - Copyright ORBIFLY December 2007 - Disclaimer

ORBIFLY MET'MAP TEAM :

Programming & Development : Alexandra Zaïnal
Concept & Development : Baudouin d'Aumeries
Co-Development & Prog : Marc-Olivier Méhu
Technical & hardware support : Manuel Goepfert

Contact : metmap@orbifly.com




SOURCES & CREDITS :

   NOAA